createdAt,value
2018-11-25T00:00:16.952Z,0.00
2018-11-25T00:01:16.946Z,0.00
2018-11-25T00:02:16.936Z,0.00
2018-11-25T00:03:16.921Z,0.00
2018-11-25T00:04:16.910Z,0.00
2018-11-25T00:05:16.901Z,0.00
2018-11-25T00:06:16.891Z,0.00
2018-11-25T00:07:16.885Z,0.00
2018-11-25T00:08:16.877Z,0.00
2018-11-25T00:09:16.857Z,0.00
2018-11-25T00:10:16.851Z,0.00
2018-11-25T00:11:16.836Z,0.00
2018-11-25T00:12:16.826Z,0.00
2018-11-25T00:13:16.817Z,0.00
2018-11-25T00:14:16.810Z,0.00
2018-11-25T00:15:16.798Z,0.00
2018-11-25T00:16:16.789Z,0.00
2018-11-25T00:17:16.774Z,0.00
2018-11-25T00:18:18.080Z,0.00
2018-11-25T00:19:16.756Z,0.00
2018-11-25T00:20:16.748Z,0.00
2018-11-25T00:21:16.735Z,0.00
2018-11-25T00:22:16.725Z,0.00
2018-11-25T00:23:16.710Z,0.00
2018-11-25T00:24:16.700Z,0.00
2018-11-25T00:25:16.694Z,0.00
2018-11-25T00:26:16.678Z,0.00
2018-11-25T00:27:16.672Z,0.00
2018-11-25T00:28:16.662Z,0.00
2018-11-25T00:29:16.650Z,0.00
2018-11-25T00:30:16.640Z,0.00
2018-11-25T00:31:16.625Z,0.00
2018-11-25T00:32:16.620Z,0.00
2018-11-25T00:33:16.608Z,0.00
2018-11-25T00:34:16.597Z,0.00
2018-11-25T00:35:16.583Z,0.00
2018-11-25T00:36:16.578Z,0.00
2018-11-25T00:37:16.562Z,0.00
2018-11-25T00:38:16.551Z,0.00
2018-11-25T00:39:16.548Z,0.00
2018-11-25T00:40:16.536Z,0.00
2018-11-25T00:41:16.525Z,0.00
2018-11-25T00:42:16.513Z,0.00
2018-11-25T00:43:16.498Z,0.00
2018-11-25T00:44:16.488Z,0.00
2018-11-25T00:45:16.481Z,0.00
2018-11-25T00:46:16.466Z,0.00
2018-11-25T00:47:16.461Z,0.00
2018-11-25T00:48:16.451Z,0.00
2018-11-25T00:49:16.435Z,0.00
2018-11-25T00:50:16.424Z,0.00
2018-11-25T00:51:16.418Z,0.00
2018-11-25T00:52:16.407Z,0.00
2018-11-25T00:53:16.397Z,0.00
2018-11-25T00:54:16.387Z,0.00
2018-11-25T00:55:16.371Z,0.00
2018-11-25T00:56:16.361Z,0.00
2018-11-25T00:57:16.356Z,0.00
2018-11-25T00:58:16.340Z,0.00
2018-11-25T00:59:16.334Z,0.00
2018-11-25T01:00:16.333Z,0.00
2018-11-25T01:01:16.312Z,0.00
2018-11-25T01:02:16.301Z,0.00
2018-11-25T01:03:16.286Z,0.00
2018-11-25T01:04:16.275Z,0.00
2018-11-25T01:05:16.271Z,0.00
2018-11-25T01:06:16.259Z,0.00
2018-11-25T01:07:16.243Z,0.00
2018-11-25T01:08:16.235Z,0.00
2018-11-25T01:09:16.222Z,0.00
2018-11-25T01:10:16.211Z,0.00
2018-11-25T01:11:16.206Z,0.00
2018-11-25T01:12:16.196Z,0.00
2018-11-25T01:13:16.179Z,0.00
2018-11-25T01:14:16.168Z,0.00
2018-11-25T01:15:16.164Z,0.00
2018-11-25T01:16:16.155Z,0.00
2018-11-25T01:17:16.140Z,0.00
2018-11-25T01:18:16.130Z,0.00
2018-11-25T01:19:16.117Z,0.00
2018-11-25T01:20:16.106Z,0.00
2018-11-25T01:21:16.100Z,0.00
2018-11-25T01:22:16.089Z,0.00
2018-11-25T01:23:16.074Z,0.00
2018-11-25T01:24:16.064Z,0.00
2018-11-25T01:25:16.054Z,0.00
2018-11-25T01:26:16.042Z,0.00
2018-11-25T01:27:16.034Z,0.00
2018-11-25T01:28:16.025Z,0.00
2018-11-25T01:29:16.019Z,0.00
2018-11-25T01:30:16.003Z,0.00
2018-11-25T01:31:15.988Z,0.00
2018-11-25T01:32:15.978Z,0.00
2018-11-25T01:33:15.965Z,0.00
2018-11-25T01:34:15.955Z,0.00
2018-11-25T01:35:15.949Z,0.00
2018-11-25T01:36:15.940Z,0.00
2018-11-25T01:37:15.923Z,0.00
2018-11-25T01:38:15.912Z,0.00
2018-11-25T01:39:15.907Z,0.00
2018-11-25T01:40:15.902Z,0.00
2018-11-25T01:41:15.886Z,0.00
2018-11-25T01:42:15.887Z,0.00
2018-11-25T01:43:15.860Z,0.00
2018-11-25T01:44:15.849Z,0.00
2018-11-25T01:45:15.844Z,0.00
2018-11-25T01:46:15.827Z,0.00
2018-11-25T01:47:15.823Z,0.00
2018-11-25T01:48:15.813Z,0.00
2018-11-25T01:49:15.803Z,0.00
2018-11-25T01:50:15.789Z,0.00
2018-11-25T01:51:15.774Z,0.00
2018-11-25T01:52:15.765Z,0.00
2018-11-25T01:53:15.759Z,0.00
2018-11-25T01:54:15.748Z,0.00
2018-11-25T01:55:15.736Z,0.00
2018-11-25T01:56:15.722Z,0.00
2018-11-25T01:57:15.712Z,0.00
2018-11-25T01:58:15.701Z,0.00
2018-11-25T01:59:15.697Z,0.00
2018-11-25T02:00:15.685Z,0.00
2018-11-25T02:01:15.680Z,0.00
2018-11-25T02:02:15.662Z,0.00
2018-11-25T02:03:15.650Z,0.00
2018-11-25T02:04:15.639Z,0.00
2018-11-25T02:05:15.625Z,0.00
2018-11-25T02:06:15.616Z,0.00
2018-11-25T02:07:15.610Z,0.00
2018-11-25T02:08:15.600Z,0.00
2018-11-25T02:09:15.584Z,0.00
2018-11-25T02:10:15.574Z,0.00
2018-11-25T02:11:15.570Z,0.00
2018-11-25T02:12:15.558Z,0.00
2018-11-25T02:13:15.548Z,0.00
2018-11-25T02:14:15.537Z,0.00
2018-11-25T02:15:15.524Z,0.00
2018-11-25T02:16:15.511Z,0.00
2018-11-25T02:17:15.500Z,0.00
2018-11-25T02:18:15.489Z,0.00
2018-11-25T02:19:15.485Z,0.00
2018-11-25T02:20:15.537Z,0.00
2018-11-25T02:21:15.470Z,0.00
2018-11-25T02:22:15.457Z,0.00
2018-11-25T02:23:15.445Z,0.00
2018-11-25T02:24:15.428Z,0.00
2018-11-25T02:25:15.420Z,0.00
2018-11-25T02:26:15.413Z,0.00
2018-11-25T02:27:15.395Z,0.00
2018-11-25T02:28:15.387Z,0.00
2018-11-25T02:29:15.374Z,0.00
2018-11-25T02:30:15.370Z,0.00
2018-11-25T02:31:15.359Z,0.00
2018-11-25T02:32:15.355Z,0.00
2018-11-25T02:33:15.336Z,0.00
2018-11-25T02:34:15.326Z,0.00
2018-11-25T02:35:15.312Z,0.00
2018-11-25T02:36:15.302Z,0.00
2018-11-25T02:37:15.290Z,0.00
2018-11-25T02:38:15.280Z,0.00
2018-11-25T02:39:15.275Z,0.00
2018-11-25T02:40:15.266Z,0.00
2018-11-25T02:41:15.252Z,0.00
2018-11-25T02:42:15.238Z,0.00
2018-11-25T02:43:15.233Z,0.00
2018-11-25T02:44:15.223Z,0.00
2018-11-25T02:45:15.210Z,0.00
2018-11-25T02:46:15.201Z,0.00
2018-11-25T02:47:15.230Z,0.00
2018-11-25T02:48:15.177Z,0.00
2018-11-25T02:49:15.168Z,0.00
2018-11-25T02:50:15.155Z,0.00
2018-11-25T02:51:15.149Z,0.00
2018-11-25T02:52:15.139Z,0.00
2018-11-25T02:53:15.128Z,0.00
2018-11-25T02:54:15.121Z,0.00
2018-11-25T02:55:15.102Z,0.00
2018-11-25T02:56:15.093Z,0.00
2018-11-25T02:57:15.086Z,0.00
2018-11-25T02:58:15.075Z,0.00
2018-11-25T02:59:15.060Z,0.00
2018-11-25T03:00:15.051Z,0.00
2018-11-25T03:01:15.050Z,0.00
2018-11-25T03:02:15.029Z,0.00
2018-11-25T03:03:15.022Z,0.00
2018-11-25T03:04:15.017Z,0.00
2018-11-25T03:05:15.001Z,0.00
2018-11-25T03:06:14.991Z,0.00
2018-11-25T03:07:14.976Z,0.00
2018-11-25T03:08:14.967Z,0.00
2018-11-25T03:09:14.955Z,0.00
2018-11-25T03:10:14.945Z,0.00
2018-11-25T03:11:14.940Z,0.00
2018-11-25T03:12:14.931Z,0.00
2018-11-25T03:13:14.918Z,0.00
2018-11-25T03:14:14.903Z,0.00
2018-11-25T03:15:14.898Z,0.00
2018-11-25T03:16:14.887Z,0.00
2018-11-25T03:17:14.874Z,0.00
2018-11-25T03:18:14.864Z,0.00
2018-11-25T03:19:14.849Z,0.00
2018-11-25T03:20:14.843Z,0.00
2018-11-25T03:21:14.828Z,0.00
2018-11-25T03:22:14.817Z,0.00
2018-11-25T03:23:14.814Z,0.00
2018-11-25T03:24:14.803Z,0.00
2018-11-25T03:25:14.792Z,0.00
2018-11-25T03:26:14.779Z,0.00
2018-11-25T03:27:14.766Z,0.00
2018-11-25T03:28:14.755Z,0.00
2018-11-25T03:29:14.747Z,0.00
2018-11-25T03:30:14.737Z,0.00
2018-11-25T03:31:14.722Z,0.00
2018-11-25T03:32:14.713Z,0.00
2018-11-25T03:33:14.701Z,0.00
2018-11-25T03:34:14.691Z,0.00
2018-11-25T03:35:14.686Z,0.00
2018-11-25T03:36:14.675Z,0.00
2018-11-25T03:37:14.663Z,0.00
2018-11-25T03:38:14.654Z,0.00
2018-11-25T03:39:14.640Z,0.00
2018-11-25T03:40:14.627Z,0.00
2018-11-25T03:41:14.615Z,0.00
2018-11-25T03:42:14.604Z,0.00
2018-11-25T03:43:14.599Z,0.00
2018-11-25T03:44:14.591Z,0.00
2018-11-25T03:45:14.572Z,0.00
2018-11-25T03:46:14.563Z,0.00
2018-11-25T03:47:14.558Z,0.00
2018-11-25T03:48:14.549Z,0.00
2018-11-25T03:49:14.535Z,0.00
2018-11-25T03:50:14.524Z,0.00
2018-11-25T03:51:14.509Z,0.00
2018-11-25T03:52:14.502Z,0.00
2018-11-25T03:53:14.487Z,0.00
2018-11-25T03:54:14.477Z,0.00
2018-11-25T03:55:14.474Z,0.00
2018-11-25T03:56:14.462Z,0.00
2018-11-25T03:57:14.448Z,0.00
2018-11-25T03:58:14.439Z,0.00
2018-11-25T03:59:14.426Z,0.00
2018-11-25T04:00:14.413Z,0.00
2018-11-25T04:01:14.408Z,0.00
2018-11-25T04:02:14.396Z,0.00
2018-11-25T04:03:14.380Z,0.00
2018-11-25T04:04:14.371Z,0.00
2018-11-25T04:05:14.359Z,0.00
2018-11-25T04:06:14.349Z,0.00
2018-11-25T04:07:14.343Z,0.00
2018-11-25T04:08:14.334Z,0.00
2018-11-25T04:09:14.320Z,0.00
2018-11-25T04:10:14.310Z,0.00
2018-11-25T04:11:14.295Z,0.00
2018-11-25T04:12:14.283Z,0.00
2018-11-25T04:13:14.271Z,0.00
2018-11-25T04:14:14.260Z,0.00
2018-11-25T04:15:14.254Z,0.00
2018-11-25T04:16:14.245Z,0.00
2018-11-25T04:17:14.228Z,0.00
2018-11-25T04:18:14.217Z,0.00
2018-11-25T04:19:14.211Z,0.00
2018-11-25T04:20:14.201Z,0.00
2018-11-25T04:21:14.189Z,0.00
2018-11-25T04:22:14.179Z,0.00
2018-11-25T04:23:14.164Z,0.00
2018-11-25T04:24:14.152Z,0.00
2018-11-25T04:25:14.140Z,0.00
2018-11-25T04:26:14.130Z,0.00
2018-11-25T04:27:14.123Z,0.00
2018-11-25T04:28:14.113Z,0.00
2018-11-25T04:29:14.102Z,0.00
2018-11-25T04:30:14.092Z,0.00
2018-11-25T04:31:14.079Z,0.00
2018-11-25T04:32:14.065Z,0.00
2018-11-25T04:33:14.059Z,0.00
2018-11-25T04:34:14.049Z,0.00
2018-11-25T04:35:14.034Z,0.00
2018-11-25T04:36:14.022Z,0.00
2018-11-25T04:37:14.010Z,0.00
2018-11-25T04:38:13.999Z,0.00
2018-11-25T04:39:13.993Z,0.00
2018-11-25T04:40:13.982Z,0.00
2018-11-25T04:41:13.971Z,0.00
2018-11-25T04:42:13.965Z,0.00
2018-11-25T04:43:13.951Z,0.00
2018-11-25T04:44:13.938Z,0.00
2018-11-25T04:45:13.945Z,0.00
2018-11-25T04:46:13.914Z,0.00
2018-11-25T04:47:13.908Z,0.00
2018-11-25T04:48:13.901Z,0.00
2018-11-25T04:49:13.882Z,0.00
2018-11-25T04:50:13.871Z,0.00
2018-11-25T04:51:13.866Z,0.00
2018-11-25T04:52:13.856Z,0.00
2018-11-25T04:53:13.843Z,0.00
2018-11-25T04:54:13.832Z,0.00
2018-11-25T04:55:13.819Z,0.00
2018-11-25T04:56:13.807Z,0.00
2018-11-25T04:57:13.797Z,0.00
2018-11-25T04:58:13.786Z,0.00
2018-11-25T04:59:13.779Z,0.00
2018-11-25T05:00:13.823Z,0.00
2018-11-25T05:01:13.759Z,0.00
2018-11-25T05:02:13.748Z,0.00
2018-11-25T05:03:13.732Z,0.00
2018-11-25T05:04:13.721Z,0.00
2018-11-25T05:05:13.716Z,0.00
2018-11-25T05:06:13.705Z,0.00
2018-11-25T05:07:13.689Z,0.00
2018-11-25T05:08:13.678Z,0.00
2018-11-25T05:09:13.666Z,0.00
2018-11-25T05:10:13.657Z,0.00
2018-11-25T05:11:13.657Z,0.00
2018-11-25T05:12:13.640Z,0.00
2018-11-25T05:13:13.627Z,0.00
2018-11-25T05:14:13.621Z,0.00
2018-11-25T05:15:13.603Z,0.00
2018-11-25T05:16:13.593Z,0.00
2018-11-25T05:17:13.581Z,0.00
2018-11-25T05:18:13.571Z,0.00
2018-11-25T05:19:13.566Z,0.00
2018-11-25T05:20:13.564Z,0.00
2018-11-25T05:21:13.538Z,0.00
2018-11-25T05:22:13.534Z,0.00
2018-11-25T05:23:13.522Z,0.00
2018-11-25T05:24:13.512Z,0.00
2018-11-25T05:25:13.509Z,0.00
2018-11-25T05:26:13.489Z,0.00
2018-11-25T05:27:13.474Z,0.00
2018-11-25T05:28:13.466Z,0.00
2018-11-25T05:29:13.452Z,0.00
2018-11-25T05:30:13.442Z,0.00
2018-11-25T05:31:13.436Z,0.00
2018-11-25T05:32:13.431Z,0.00
2018-11-25T05:33:13.414Z,0.00
2018-11-25T05:34:13.405Z,0.00
2018-11-25T05:35:13.389Z,0.00
2018-11-25T05:36:13.382Z,0.00
2018-11-25T05:37:13.372Z,0.00
2018-11-25T05:38:13.363Z,0.00
2018-11-25T05:39:13.347Z,0.00
2018-11-25T05:40:13.336Z,0.00
2018-11-25T05:41:13.323Z,0.00
2018-11-25T05:42:13.315Z,0.00
2018-11-25T05:43:13.307Z,0.00
2018-11-25T05:44:13.304Z,0.00
2018-11-25T05:45:13.288Z,0.00
2018-11-25T05:46:13.275Z,0.00
2018-11-25T05:47:13.261Z,0.00
2018-11-25T05:48:13.250Z,0.00
2018-11-25T05:49:13.241Z,0.00
2018-11-25T05:50:13.229Z,0.00
2018-11-25T05:51:13.224Z,0.00
2018-11-25T05:52:13.212Z,0.00
2018-11-25T05:53:13.196Z,0.00
2018-11-25T05:54:13.185Z,0.00
2018-11-25T05:55:13.180Z,0.00
2018-11-25T05:56:13.170Z,0.00
2018-11-25T05:57:13.162Z,0.00
2018-11-25T05:58:13.146Z,0.00
2018-11-25T05:59:13.131Z,0.00
2018-11-25T06:00:13.121Z,0.00
2018-11-25T06:01:13.110Z,0.00
2018-11-25T06:02:13.100Z,0.00
2018-11-25T06:03:13.092Z,0.00
2018-11-25T06:04:13.084Z,0.00
2018-11-25T06:05:13.071Z,0.00
2018-11-25T06:06:13.061Z,0.00
2018-11-25T06:07:13.045Z,0.00
2018-11-25T06:08:13.037Z,0.00
2018-11-25T06:09:13.028Z,0.00
2018-11-25T06:10:13.017Z,0.00
2018-11-25T06:11:13.002Z,0.00
2018-11-25T06:12:12.991Z,0.00
2018-11-25T06:13:12.982Z,0.00
2018-11-25T06:14:12.969Z,0.00
2018-11-25T06:15:12.964Z,0.00
2018-11-25T06:16:12.951Z,0.00
2018-11-25T06:17:12.939Z,0.00
2018-11-25T06:18:12.929Z,0.00
2018-11-25T06:19:12.914Z,0.00
2018-11-25T06:20:12.925Z,0.00
2018-11-25T06:21:12.893Z,0.00
2018-11-25T06:22:12.882Z,0.00
2018-11-25T06:23:12.876Z,0.00
2018-11-25T06:24:12.867Z,0.00
2018-11-25T06:25:12.857Z,0.00
2018-11-25T06:26:12.838Z,0.00
2018-11-25T06:27:12.832Z,0.00
2018-11-25T06:28:12.821Z,0.00
2018-11-25T06:29:12.807Z,0.00
2018-11-25T06:30:12.798Z,0.00
2018-11-25T06:31:12.783Z,0.00
2018-11-25T06:32:12.774Z,0.00
2018-11-25T06:33:12.795Z,0.00
2018-11-25T06:34:12.749Z,0.00
2018-11-25T06:35:12.744Z,4.00
2018-11-25T06:36:12.733Z,4.00
2018-11-25T06:37:12.720Z,0.00
2018-11-25T06:38:12.709Z,4.00
2018-11-25T06:39:12.696Z,4.00
2018-11-25T06:40:12.685Z,4.00
2018-11-25T06:41:12.676Z,8.00
2018-11-25T06:42:12.667Z,8.00
2018-11-25T06:43:12.650Z,8.00
2018-11-25T06:44:12.640Z,8.00
2018-11-25T06:45:12.629Z,8.00
2018-11-25T06:46:12.616Z,12.00
2018-11-25T06:47:12.610Z,12.00
2018-11-25T06:48:12.601Z,16.00
2018-11-25T06:49:12.589Z,24.00
2018-11-25T06:50:12.610Z,24.00
2018-11-25T06:51:12.563Z,28.00
2018-11-25T06:52:12.553Z,32.00
2018-11-25T06:53:12.539Z,36.00
2018-11-25T06:54:12.532Z,36.00
2018-11-25T06:55:12.521Z,40.00
2018-11-25T06:56:12.511Z,48.00
2018-11-25T06:57:12.495Z,52.00
2018-11-25T06:58:12.487Z,52.00
2018-11-25T06:59:12.479Z,60.00
2018-11-25T07:00:12.475Z,64.00
2018-11-25T07:01:12.455Z,72.00
2018-11-25T07:02:12.463Z,72.00
2018-11-25T07:03:12.428Z,76.00
2018-11-25T07:04:12.418Z,72.00
2018-11-25T07:05:12.407Z,84.00
2018-11-25T07:06:12.395Z,92.00
2018-11-25T07:07:12.389Z,96.00
2018-11-25T07:08:12.378Z,100.00
2018-11-25T07:09:12.372Z,108.00
2018-11-25T07:10:12.354Z,112.00
2018-11-25T07:11:12.339Z,124.00
2018-11-25T07:12:12.328Z,124.00
2018-11-25T07:13:12.321Z,128.00
2018-11-25T07:14:12.311Z,124.00
2018-11-25T07:15:12.295Z,136.00
2018-11-25T07:16:12.290Z,136.00
2018-11-25T07:17:12.272Z,144.00
2018-11-25T07:18:12.262Z,152.00
2018-11-25T07:19:12.256Z,164.00
2018-11-25T07:20:12.252Z,180.00
2018-11-25T07:21:12.234Z,188.00
2018-11-25T07:22:12.223Z,192.00
2018-11-25T07:23:12.210Z,212.00
2018-11-25T07:24:12.196Z,232.00
2018-11-25T07:25:12.184Z,228.00
2018-11-25T07:26:12.172Z,224.00
2018-11-25T07:27:12.167Z,240.00
2018-11-25T07:28:18.549Z,244.00
2018-11-25T07:29:12.140Z,244.00
2018-11-25T07:30:12.135Z,236.00
2018-11-25T07:31:12.123Z,264.00
2018-11-25T07:32:12.114Z,276.00
2018-11-25T07:33:12.100Z,288.00
2018-11-25T07:34:12.089Z,308.00
2018-11-25T07:35:12.074Z,344.00
2018-11-25T07:36:12.063Z,352.00
2018-11-25T07:37:12.051Z,344.00
2018-11-25T07:38:12.040Z,348.00
2018-11-25T07:39:12.034Z,372.00
2018-11-25T07:40:12.024Z,388.00
2018-11-25T07:41:12.012Z,372.00
2018-11-25T07:42:12.001Z,392.00
2018-11-25T07:43:11.988Z,396.00
2018-11-25T07:44:11.975Z,388.00
2018-11-25T07:45:11.968Z,396.00
2018-11-25T07:46:11.963Z,424.00
2018-11-25T07:47:11.941Z,456.00
2018-11-25T07:48:11.930Z,484.00
2018-11-25T07:49:11.918Z,508.00
2018-11-25T07:50:11.908Z,520.00
2018-11-25T07:51:11.901Z,512.00
2018-11-25T07:52:11.889Z,528.00
2018-11-25T07:53:11.878Z,572.00
2018-11-25T07:54:11.868Z,612.00
2018-11-25T07:55:11.858Z,620.00
2018-11-25T07:56:11.844Z,600.00
2018-11-25T07:57:11.831Z,600.00
2018-11-25T07:58:11.819Z,576.00
2018-11-25T07:59:11.813Z,560.00
2018-11-25T08:00:11.803Z,568.00
2018-11-25T08:01:11.787Z,564.00
2018-11-25T08:02:11.775Z,564.00
2018-11-25T08:03:11.769Z,580.00
2018-11-25T08:04:11.758Z,604.00
2018-11-25T08:05:11.749Z,604.00
2018-11-25T08:06:11.735Z,572.00
2018-11-25T08:07:11.721Z,576.00
2018-11-25T08:08:11.710Z,616.00
2018-11-25T08:09:11.699Z,668.00
2018-11-25T08:10:11.687Z,668.00
2018-11-25T08:11:11.684Z,624.00
2018-11-25T08:12:11.671Z,576.00
2018-11-25T08:13:11.663Z,548.00
2018-11-25T08:14:11.650Z,532.00
2018-11-25T08:15:11.634Z,552.00
2018-11-25T08:16:11.624Z,616.00
2018-11-25T08:17:11.616Z,668.00
2018-11-25T08:18:11.606Z,680.00
2018-11-25T08:19:11.591Z,720.00
2018-11-25T08:20:11.582Z,728.00
2018-11-25T08:21:11.574Z,740.00
2018-11-25T08:22:11.559Z,776.00
2018-11-25T08:23:11.568Z,788.00
2018-11-25T08:24:11.541Z,828.00
2018-11-25T08:25:11.530Z,800.00
2018-11-25T08:26:11.519Z,832.00
2018-11-25T08:27:11.504Z,900.00
2018-11-25T08:28:11.499Z,1040.00
2018-11-25T08:29:11.483Z,1096.00
2018-11-25T08:30:11.472Z,1240.00
2018-11-25T08:31:11.467Z,1272.00
2018-11-25T08:32:11.457Z,1468.00
2018-11-25T08:33:11.441Z,1500.00
2018-11-25T08:34:11.429Z,1508.00
2018-11-25T08:35:11.425Z,1528.00
2018-11-25T08:36:11.414Z,1572.00
2018-11-25T08:37:11.402Z,1612.00
2018-11-25T08:38:11.391Z,1644.00
2018-11-25T08:39:11.376Z,1772.00
2018-11-25T08:40:11.366Z,1824.00
2018-11-25T08:41:11.358Z,1988.00
2018-11-25T08:42:11.345Z,2132.00
2018-11-25T08:43:11.339Z,2048.00
2018-11-25T08:44:11.329Z,2088.00
2018-11-25T08:45:11.319Z,2172.00
2018-11-25T08:46:11.306Z,2168.00
2018-11-25T08:47:11.295Z,2332.00
2018-11-25T08:48:11.281Z,2288.00
2018-11-25T08:49:11.274Z,2504.00
2018-11-25T08:50:11.265Z,2424.00
2018-11-25T08:51:11.250Z,2564.00
2018-11-25T08:52:11.240Z,2780.00
2018-11-25T08:53:11.228Z,2752.00
2018-11-25T08:54:11.220Z,2740.00
2018-11-25T08:55:11.213Z,2488.00
2018-11-25T08:56:11.203Z,2376.00
2018-11-25T08:57:11.192Z,2292.00
2018-11-25T08:58:11.181Z,2356.00
2018-11-25T08:59:11.169Z,2492.00
2018-11-25T09:00:11.168Z,2072.00
2018-11-25T09:01:11.144Z,1932.00
2018-11-25T09:02:11.141Z,1760.00
2018-11-25T09:03:11.128Z,1628.00
2018-11-25T09:04:11.120Z,1640.00
2018-11-25T09:05:11.108Z,1636.00
2018-11-25T09:06:11.100Z,1496.00
2018-11-25T09:07:11.089Z,1472.00
2018-11-25T09:08:11.079Z,1268.00
2018-11-25T09:09:11.067Z,1280.00
2018-11-25T09:10:11.065Z,1416.00
2018-11-25T09:11:11.042Z,1412.00
2018-11-25T09:12:11.039Z,1348.00
2018-11-25T09:13:11.021Z,1280.00
2018-11-25T09:14:11.010Z,1320.00
2018-11-25T09:15:11.006Z,1464.00
2018-11-25T09:16:10.995Z,1848.00
2018-11-25T09:17:10.988Z,2116.00
2018-11-25T09:18:10.973Z,2168.00
2018-11-25T09:19:10.959Z,2056.00
2018-11-25T09:20:10.950Z,1984.00
2018-11-25T09:21:10.943Z,2044.00
2018-11-25T09:22:10.932Z,1888.00
2018-11-25T09:23:10.917Z,1840.00
2018-11-25T09:24:10.910Z,1904.00
2018-11-25T09:25:10.896Z,1952.00
2018-11-25T09:26:10.886Z,2076.00
2018-11-25T09:27:10.881Z,2024.00
2018-11-25T09:28:10.872Z,1972.00
2018-11-25T09:29:10.861Z,1800.00
2018-11-25T09:30:10.853Z,1792.00
2018-11-25T09:31:10.836Z,1756.00
2018-11-25T09:32:10.826Z,1576.00
2018-11-25T09:33:10.814Z,1584.00
2018-11-25T09:34:10.803Z,1824.00
2018-11-25T09:35:10.803Z,1856.00
2018-11-25T09:36:10.787Z,1972.00
2018-11-25T09:37:10.773Z,1968.00
2018-11-25T09:38:10.765Z,2032.00
2018-11-25T09:39:10.759Z,1992.00
2018-11-25T09:40:10.746Z,2040.00
2018-11-25T09:41:10.737Z,1968.00
2018-11-25T09:42:10.728Z,1968.00
2018-11-25T09:43:10.716Z,2048.00
2018-11-25T09:44:10.701Z,2012.00
2018-11-25T09:45:10.737Z,2072.00
2018-11-25T09:46:10.685Z,2304.00
2018-11-25T09:47:10.669Z,2420.00
2018-11-25T09:48:10.659Z,2452.00
2018-11-25T09:49:10.650Z,2216.00
2018-11-25T09:50:10.639Z,2012.00
2018-11-25T09:51:10.634Z,2112.00
2018-11-25T09:52:10.625Z,2316.00
2018-11-25T09:53:10.609Z,2560.00
2018-11-25T09:54:10.598Z,2744.00
2018-11-25T09:55:10.593Z,2724.00
2018-11-25T09:56:10.584Z,2600.00
2018-11-25T09:57:10.572Z,2464.00
2018-11-25T09:58:10.562Z,2504.00
2018-11-25T09:59:10.550Z,2648.00
2018-11-25T10:00:10.539Z,2844.00
2018-11-25T10:01:10.527Z,2812.00
2018-11-25T10:02:10.521Z,2880.00
2018-11-25T10:03:10.511Z,2624.00
2018-11-25T10:04:10.502Z,2524.00
2018-11-25T10:05:10.492Z,2528.00
2018-11-25T10:06:10.487Z,2448.00
2018-11-25T10:07:10.467Z,2480.00
2018-11-25T10:08:10.459Z,2448.00
2018-11-25T10:09:10.451Z,2544.00
2018-11-25T10:10:10.442Z,2600.00
2018-11-25T10:11:10.427Z,2592.00
2018-11-25T10:12:10.417Z,2568.00
2018-11-25T10:13:10.406Z,2544.00
2018-11-25T10:14:10.404Z,2792.00
2018-11-25T10:15:10.391Z,2820.00
2018-11-25T10:16:10.381Z,2312.00
2018-11-25T10:17:10.370Z,2808.00
2018-11-25T10:18:10.362Z,2188.00
2018-11-25T10:19:10.352Z,2040.00
2018-11-25T10:20:10.339Z,2160.00
2018-11-25T10:21:10.327Z,2368.00
2018-11-25T10:22:10.317Z,2532.00
2018-11-25T10:23:10.312Z,2624.00
2018-11-25T10:24:10.302Z,2380.00
2018-11-25T10:25:10.287Z,2492.00
2018-11-25T10:26:10.278Z,2680.00
2018-11-25T10:27:10.273Z,2724.00
2018-11-25T10:28:10.266Z,2604.00
2018-11-25T10:29:10.251Z,2416.00
2018-11-25T10:30:10.242Z,2296.00
2018-11-25T10:31:10.227Z,2756.00
2018-11-25T10:32:10.220Z,2708.00
2018-11-25T10:33:10.211Z,2328.00
2018-11-25T10:34:10.196Z,2096.00
2018-11-25T10:35:10.192Z,1940.00
2018-11-25T10:36:10.182Z,1916.00
2018-11-25T10:37:10.172Z,1848.00
2018-11-25T10:38:10.171Z,1948.00
2018-11-25T10:39:10.152Z,1820.00
2018-11-25T10:40:10.142Z,1936.00
2018-11-25T10:41:10.132Z,1812.00
2018-11-25T10:42:10.121Z,1948.00
2018-11-25T10:43:10.106Z,1896.00
2018-11-25T10:44:10.099Z,1880.00
2018-11-25T10:45:10.087Z,1992.00
2018-11-25T10:46:10.078Z,1908.00
2018-11-25T10:47:10.072Z,1888.00
2018-11-25T10:48:10.065Z,1964.00
2018-11-25T10:49:10.052Z,2064.00
2018-11-25T10:50:10.043Z,1936.00
2018-11-25T10:51:10.027Z,1796.00
2018-11-25T10:52:10.018Z,1864.00
2018-11-25T10:53:10.006Z,1780.00
2018-11-25T10:54:09.996Z,1884.00
2018-11-25T10:55:09.990Z,1760.00
2018-11-25T10:56:09.980Z,1656.00
2018-11-25T10:57:09.966Z,1680.00
2018-11-25T10:58:09.956Z,1608.00
2018-11-25T10:59:09.955Z,1504.00
2018-11-25T11:00:09.940Z,1724.00
2018-11-25T11:01:09.932Z,1852.00
2018-11-25T11:02:09.928Z,1776.00
2018-11-25T11:03:09.907Z,1816.00
2018-11-25T11:04:09.897Z,1772.00
2018-11-25T11:05:09.885Z,1724.00
2018-11-25T11:06:09.880Z,1828.00
2018-11-25T11:07:09.870Z,1972.00
2018-11-25T11:08:09.869Z,1908.00
2018-11-25T11:09:09.848Z,1832.00
2018-11-25T11:10:09.841Z,1820.00
2018-11-25T11:11:09.825Z,1748.00
2018-11-25T11:12:09.814Z,1684.00
2018-11-25T11:13:09.810Z,1548.00
2018-11-25T11:14:09.798Z,1708.00
2018-11-25T11:15:09.784Z,1780.00
2018-11-25T11:16:09.773Z,1836.00
2018-11-25T11:17:09.764Z,1876.00
2018-11-25T11:18:09.752Z,1960.00
2018-11-25T11:19:09.748Z,1952.00
2018-11-25T11:20:09.741Z,1932.00
2018-11-25T11:21:09.736Z,1976.00
2018-11-25T11:22:09.718Z,1924.00
2018-11-25T11:23:09.704Z,1948.00
2018-11-25T11:24:09.692Z,1816.00
2018-11-25T11:25:09.686Z,1844.00
2018-11-25T11:26:09.672Z,1760.00
2018-11-25T11:27:09.667Z,1724.00
2018-11-25T11:28:09.659Z,1784.00
2018-11-25T11:29:09.641Z,1980.00
2018-11-25T11:30:09.632Z,1920.00
2018-11-25T11:31:13.405Z,1556.00
2018-11-25T11:32:09.676Z,1548.00
2018-11-25T11:33:09.605Z,1652.00
2018-11-25T11:34:09.600Z,1436.00
2018-11-25T11:35:09.582Z,1568.00
2018-11-25T11:36:09.571Z,1508.00
2018-11-25T11:37:09.562Z,1552.00
2018-11-25T11:38:09.551Z,1464.00
2018-11-25T11:39:09.546Z,1316.00
2018-11-25T11:40:10.157Z,1340.00
2018-11-25T11:41:09.536Z,1336.00
2018-11-25T11:42:09.515Z,1268.00
2018-11-25T11:43:09.501Z,1288.00
2018-11-25T11:44:09.492Z,1340.00
2018-11-25T11:45:09.485Z,1448.00
2018-11-25T11:46:09.476Z,1444.00
2018-11-25T11:47:09.464Z,1476.00
2018-11-25T11:48:09.458Z,1492.00
2018-11-25T11:49:09.439Z,1672.00
2018-11-25T11:50:09.433Z,1528.00
2018-11-25T11:51:09.424Z,1712.00
2018-11-25T11:52:09.416Z,1604.00
2018-11-25T11:53:09.410Z,1608.00
2018-11-25T11:54:09.398Z,1632.00
2018-11-25T11:55:09.379Z,1728.00
2018-11-25T11:56:09.370Z,1712.00
2018-11-25T11:57:09.362Z,1764.00
2018-11-25T11:58:09.354Z,1684.00
2018-11-25T11:59:09.344Z,1604.00
2018-11-25T12:00:09.334Z,1756.00
2018-11-25T12:01:09.317Z,1840.00
2018-11-25T12:02:09.308Z,1956.00
2018-11-25T12:03:09.305Z,2108.00
2018-11-25T12:04:09.293Z,1784.00
2018-11-25T12:05:09.285Z,1712.00
2018-11-25T12:06:09.271Z,1700.00
2018-11-25T12:07:09.267Z,1864.00
2018-11-25T12:08:09.247Z,1960.00
2018-11-25T12:09:09.237Z,1788.00
2018-11-25T12:10:09.228Z,1748.00
2018-11-25T12:11:09.228Z,1632.00
2018-11-25T12:12:09.211Z,1692.00
2018-11-25T12:13:09.203Z,1692.00
2018-11-25T12:14:09.194Z,1640.00
2018-11-25T12:15:09.177Z,1712.00
2018-11-25T12:16:09.167Z,1736.00
2018-11-25T12:17:09.171Z,1652.00
2018-11-25T12:18:09.158Z,1672.00
2018-11-25T12:19:09.137Z,1696.00
2018-11-25T12:20:09.126Z,1612.00
2018-11-25T12:21:09.116Z,1532.00
2018-11-25T12:22:09.104Z,1456.00
2018-11-25T12:23:09.104Z,1416.00
2018-11-25T12:24:09.090Z,1520.00
2018-11-25T12:25:09.080Z,1524.00
2018-11-25T12:26:09.068Z,1476.00
2018-11-25T12:27:09.055Z,1488.00
2018-11-25T12:28:09.045Z,1356.00
2018-11-25T12:29:09.033Z,1224.00
2018-11-25T12:30:09.025Z,1232.00
2018-11-25T12:31:09.020Z,1320.00
2018-11-25T12:32:09.016Z,1224.00
2018-11-25T12:33:08.996Z,1272.00
2018-11-25T12:34:08.984Z,1228.00
2018-11-25T12:35:08.979Z,1316.00
2018-11-25T12:36:08.972Z,1324.00
2018-11-25T12:37:08.958Z,1272.00
2018-11-25T12:38:08.952Z,1252.00
2018-11-25T12:39:08.934Z,1208.00
2018-11-25T12:40:08.922Z,1172.00
2018-11-25T12:41:08.912Z,1120.00
2018-11-25T12:42:08.903Z,1116.00
2018-11-25T12:43:08.896Z,1156.00
2018-11-25T12:44:08.886Z,1044.00
2018-11-25T12:45:08.887Z,1152.00
2018-11-25T12:46:08.893Z,1304.00